Time;durP1;ratioP1;P1;durP2;ratioP2;P2;SDS_P1;SDS_P2;PMS_P1;PMS_P2;Temp;Humidity;BMP_temperature;BMP_pressure;BME280_temperature;BME280_humidity;BME280_pressure;Samples;Min_cycle;Max_cycle;Signal;HPM_P1;HPM_P2
2022/08/29 00:01:44;;;;;;;13.83;9.10;;;13.20;99.90;;;;;;8347406;28;20212;-70
2022/08/29 00:05:45;;;;;;;11.47;7.27;;;13.20;99.90;;;;;;8346641;28;20281;-69
2022/08/29 00:09:46;;;;;;;14.97;8.70;;;13.20;99.90;;;;;;8350459;28;20377;-70
2022/08/29 00:13:47;;;;;;;16.17;9.47;;;13.20;99.90;;;;;;8350726;28;20229;-70
2022/08/29 00:17:48;;;;;;;15.70;10.03;;;13.20;99.90;;;;;;8349857;28;20209;-70
2022/08/29 00:21:49;;;;;;;13.80;8.87;;;13.20;99.90;;;;;;8347401;28;20198;-71
2022/08/29 00:25:50;;;;;;;11.53;7.87;;;13.10;99.90;;;;;;8360454;28;20190;-70
2022/08/29 00:29:51;;;;;;;14.93;8.30;;;13.10;99.90;;;;;;8350479;28;20605;-70
2022/08/29 00:33:52;;;;;;;14.87;9.00;;;13.10;99.90;;;;;;8359752;28;20185;-70
2022/08/29 00:37:54;;;;;;;13.63;8.73;;;13.10;99.90;;;;;;8349172;28;20195;-70
2022/08/29 00:41:54;;;;;;;13.37;9.10;;;13.00;99.90;;;;;;8352095;28;20191;-70
2022/08/29 00:46:10;;;;;;;10.77;8.10;;;13.00;99.90;;;;;;8348202;28;20198;-69
2022/08/29 00:50:24;;;;;;;11.33;7.60;;;13.00;99.90;;;;;;8345858;28;20219;-70
2022/08/29 00:54:26;;;;;;;13.80;8.47;;;12.90;99.90;;;;;;8345872;28;20366;-69
2022/08/29 00:58:46;;;;;;;13.17;7.33;;;13.00;99.90;;;;;;8349585;28;20399;-70
2022/08/29 01:02:47;;;;;;;14.37;7.37;;;13.00;99.90;;;;;;8348549;28;20193;-70
2022/08/29 01:06:48;;;;;;;17.03;9.37;;;12.90;99.90;;;;;;8349684;28;20492;-70
2022/08/29 01:15:12;;;;;;;14.90;9.10;;;13.00;99.90;;;;;;8344176;28;20224;-70
2022/08/29 01:19:23;;;;;;;14.73;9.03;;;13.00;99.90;;;;;;8348549;28;20304;-70
2022/08/29 01:23:31;;;;;;;13.30;8.73;;;13.00;99.90;;;;;;8342871;28;20208;-70
2022/08/29 01:27:35;;;;;;;14.90;9.93;;;13.00;99.90;;;;;;8345286;28;20190;-70
2022/08/29 01:31:48;;;;;;;12.37;9.47;;;12.90;99.90;;;;;;8361637;28;20369;-69
2022/08/29 01:35:49;;;;;;;16.83;9.60;;;12.90;99.90;;;;;;8345358;28;20419;-69
2022/08/29 01:39:49;;;;;;;14.10;8.93;;;12.90;99.90;;;;;;8344475;28;20222;-71
2022/08/29 01:43:52;;;;;;;16.03;9.67;;;12.90;99.90;;;;;;8349130;28;20181;-71
2022/08/29 01:47:53;;;;;;;19.53;9.87;;;12.90;99.90;;;;;;8354491;28;20210;-70
2022/08/29 01:51:54;;;;;;;16.30;10.47;;;12.80;99.90;;;;;;8348231;28;20189;-70
2022/08/29 01:55:55;;;;;;;18.53;10.27;;;12.80;99.90;;;;;;8346221;28;20181;-70
2022/08/29 01:59:56;;;;;;;19.63;9.97;;;12.80;99.90;;;;;;8343225;28;20186;-70
2022/08/29 02:04:04;;;;;;;14.93;9.73;;;12.80;99.90;;;;;;8346934;28;20197;-70
2022/08/29 02:08:05;;;;;;;13.00;8.57;;;12.80;99.90;;;;;;8345458;28;20209;-70
2022/08/29 02:12:06;;;;;;;15.93;8.53;;;12.80;99.90;;;;;;8346413;28;20212;-70
2022/08/29 02:16:10;;;;;;;11.97;8.77;;;12.70;99.90;;;;;;8346388;28;20193;-70
2022/08/29 02:20:11;;;;;;;11.57;7.93;;;12.70;99.90;;;;;;8346770;28;20212;-70
2022/08/29 02:24:13;;;;;;;11.50;8.00;;;12.60;99.90;;;;;;8347304;28;20196;-70
2022/08/29 02:28:15;;;;;;;10.07;8.20;;;12.60;99.90;;;;;;8346311;28;20206;-70
2022/08/29 02:32:16;;;;;;;8.47;6.87;;;12.60;99.90;;;;;;8352555;28;20220;-70
2022/08/29 02:36:18;;;;;;;16.57;9.03;;;12.50;99.90;;;;;;8342925;28;20245;-69
2022/08/29 02:40:19;;;;;;;17.67;9.07;;;12.50;99.90;;;;;;8344952;28;20278;-69
2022/08/29 02:44:20;;;;;;;13.50;9.53;;;12.50;99.90;;;;;;8345243;28;20181;-70
2022/08/29 02:48:21;;;;;;;20.30;9.90;;;12.50;99.90;;;;;;8345992;28;20194;-70
2022/08/29 02:52:21;;;;;;;17.30;9.17;;;12.50;99.90;;;;;;8342907;28;20185;-70
2022/08/29 02:56:22;;;;;;;13.67;9.57;;;12.50;99.90;;;;;;8362768;28;20666;-70
2022/08/29 03:00:26;;;;;;;19.27;10.23;;;12.40;99.90;;;;;;8346609;28;20231;-70
2022/08/29 03:04:26;;;;;;;14.70;9.27;;;12.50;99.90;;;;;;8343626;28;20213;-70
2022/08/29 03:08:28;;;;;;;12.63;9.13;;;12.40;99.90;;;;;;8351037;28;20209;-70
2022/08/29 03:12:29;;;;;;;17.27;10.40;;;12.40;99.90;;;;;;8352835;28;20219;-70
2022/08/29 03:16:32;;;;;;;18.27;10.53;;;12.40;99.90;;;;;;8351836;28;20185;-70
2022/08/29 03:20:36;;;;;;;16.53;10.70;;;12.30;99.90;;;;;;8352422;28;20182;-70
2022/08/29 03:24:36;;;;;;;15.20;9.63;;;12.30;99.90;;;;;;8380873;28;20284;-70
2022/08/29 03:28:37;;;;;;;15.93;9.47;;;12.30;99.90;;;;;;8349532;28;20198;-70
2022/08/29 03:32:39;;;;;;;16.10;9.33;;;12.30;99.90;;;;;;8348100;28;20204;-70
2022/08/29 03:36:40;;;;;;;14.83;9.23;;;12.20;99.90;;;;;;8352140;28;20187;-70
2022/08/29 03:40:41;;;;;;;12.67;8.50;;;12.20;99.90;;;;;;8352456;28;20182;-70
2022/08/29 03:44:42;;;;;;;12.67;8.17;;;12.10;99.90;;;;;;8351458;28;20178;-70
2022/08/29 03:48:43;;;;;;;16.90;8.60;;;12.10;99.90;;;;;;8349692;28;20205;-70
2022/08/29 03:52:44;;;;;;;13.97;8.23;;;12.10;99.90;;;;;;8347874;28;20224;-70
2022/08/29 03:56:45;;;;;;;13.27;9.17;;;12.00;99.90;;;;;;8351106;28;20184;-72
2022/08/29 04:00:45;;;;;;;12.70;7.83;;;12.00;99.90;;;;;;8347509;28;20181;-70
2022/08/29 04:09:06;;;;;;;17.73;8.20;;;12.00;99.90;;;;;;8350907;28;20245;-70
2022/08/29 04:13:08;;;;;;;15.27;8.37;;;12.00;99.90;;;;;;8348767;28;20276;-70
2022/08/29 04:17:11;;;;;;;12.87;8.33;;;12.00;99.90;;;;;;8363580;28;20193;-70
2022/08/29 04:21:12;;;;;;;14.33;8.53;;;12.00;99.90;;;;;;8347540;28;20189;-70
2022/08/29 04:25:13;;;;;;;15.90;8.00;;;12.00;99.90;;;;;;8352351;28;20218;-70
2022/08/29 04:29:16;;;;;;;17.23;8.53;;;12.10;99.90;;;;;;8351499;28;20240;-70
2022/08/29 04:33:17;;;;;;;13.33;8.73;;;12.10;99.90;;;;;;8351190;28;20182;-70
2022/08/29 04:37:18;;;;;;;15.73;9.47;;;12.20;99.90;;;;;;8349898;28;20194;-70
2022/08/29 04:41:20;;;;;;;15.60;8.87;;;12.20;99.90;;;;;;8347729;28;20328;-70
2022/08/29 04:45:21;;;;;;;13.03;8.80;;;12.30;99.90;;;;;;8347886;28;20186;-70
2022/08/29 04:49:22;;;;;;;14.33;8.60;;;12.40;99.90;;;;;;8349906;28;20217;-69
2022/08/29 04:53:25;;;;;;;13.80;8.90;;;12.60;99.90;;;;;;8345749;28;20177;-70
2022/08/29 04:57:26;;;;;;;10.77;7.87;;;12.60;99.90;;;;;;8350620;28;20194;-70
2022/08/29 05:01:26;;;;;;;11.63;8.13;;;12.60;99.90;;;;;;8350306;28;21042;-69
2022/08/29 05:05:27;;;;;;;11.83;7.83;;;12.60;99.90;;;;;;8346932;28;20185;-71
2022/08/29 05:09:28;;;;;;;12.20;7.40;;;12.70;99.90;;;;;;8351067;28;20241;-70
2022/08/29 05:13:29;;;;;;;11.53;7.33;;;12.80;99.90;;;;;;8347186;28;20214;-70
2022/08/29 05:17:30;;;;;;;11.47;6.53;;;12.90;99.90;;;;;;8347220;28;20198;-70
2022/08/29 05:21:34;;;;;;;9.50;7.03;;;12.90;99.90;;;;;;8347222;28;20182;-69
2022/08/29 05:25:35;;;;;;;11.57;6.90;;;13.10;99.90;;;;;;8348451;28;20189;-70
2022/08/29 05:29:41;;;;;;;17.37;6.67;;;13.20;99.90;;;;;;8347357;28;20209;-69
2022/08/29 05:33:41;;;;;;;11.00;6.43;;;13.30;99.90;;;;;;8362649;28;20210;-69
2022/08/29 05:37:42;;;;;;;15.43;6.27;;;13.40;99.90;;;;;;8350335;28;20177;-70
2022/08/29 05:41:43;;;;;;;10.40;5.37;;;13.50;99.90;;;;;;8344521;28;20293;-68
2022/08/29 05:45:44;;;;;;;11.37;5.10;;;13.60;99.90;;;;;;8347856;28;20197;-70
2022/08/29 05:49:46;;;;;;;8.83;4.80;;;13.70;99.90;;;;;;8353141;28;20213;-69
2022/08/29 05:53:47;;;;;;;11.70;5.50;;;13.80;99.90;;;;;;8346040;28;20273;-70
2022/08/29 05:57:50;;;;;;;9.33;4.47;;;13.90;99.90;;;;;;8347845;28;20214;-70
2022/08/29 06:01:51;;;;;;;8.67;4.83;;;14.00;99.90;;;;;;8335668;28;20196;-69
2022/08/29 06:05:52;;;;;;;13.40;4.57;;;14.10;99.90;;;;;;8337764;28;20300;-69
2022/08/29 06:09:53;;;;;;;9.30;4.70;;;14.20;99.90;;;;;;8348015;28;20227;-70
2022/08/29 06:13:54;;;;;;;8.47;3.93;;;14.30;99.90;;;;;;8346848;28;20206;-68
2022/08/29 06:17:55;;;;;;;10.00;3.87;;;14.50;99.90;;;;;;8346334;28;20201;-70
2022/08/29 06:21:56;;;;;;;9.33;4.07;;;14.50;99.90;;;;;;8344199;28;20242;-69
2022/08/29 06:25:57;;;;;;;8.67;4.17;;;14.60;99.90;;;;;;8346306;28;20213;-70
2022/08/29 06:29:58;;;;;;;12.13;4.20;;;14.60;99.90;;;;;;8346275;28;20220;-69
2022/08/29 06:34:01;;;;;;;14.43;4.77;;;14.70;99.90;;;;;;8344483;28;20178;-70
2022/08/29 06:38:05;;;;;;;8.40;3.97;;;14.80;99.90;;;;;;8352030;28;20201;-70
2022/08/29 06:42:09;;;;;;;9.27;4.10;;;14.80;99.90;;;;;;8345322;28;20217;-68
2022/08/29 06:46:32;;;;;;;9.33;4.17;;;14.90;99.90;;;;;;8375593;28;20192;-68
2022/08/29 06:50:37;;;;;;;9.70;4.30;;;15.10;99.90;;;;;;8345887;28;20220;-69
2022/08/29 06:54:38;;;;;;;9.87;3.43;;;15.20;99.90;;;;;;8345594;28;20249;-69
2022/08/29 06:58:39;;;;;;;8.73;3.63;;;15.30;99.90;;;;;;8346262;28;20194;-70
2022/08/29 07:02:40;;;;;;;9.63;3.60;;;15.40;99.90;;;;;;8343090;28;20240;-69
2022/08/29 07:06:42;;;;;;;7.87;3.60;;;15.50;99.90;;;;;;8348399;28;20184;-70
2022/08/29 07:10:44;;;;;;;9.77;3.47;;;15.50;99.90;;;;;;8345855;28;20209;-70
2022/08/29 07:14:45;;;;;;;11.37;3.70;;;15.60;99.90;;;;;;8352376;28;20642;-69
2022/08/29 07:18:49;;;;;;;12.57;2.80;;;15.70;99.90;;;;;;8344594;28;20264;-70
2022/08/29 07:22:51;;;;;;;7.57;2.70;;;15.90;99.90;;;;;;8343325;28;20201;-69
2022/08/29 07:26:51;;;;;;;8.67;3.30;;;16.10;99.90;;;;;;8347657;28;20201;-70
2022/08/29 07:30:52;;;;;;;4.97;2.93;;;16.30;99.90;;;;;;8345057;28;20212;-69
2022/08/29 07:34:53;;;;;;;8.10;3.17;;;16.40;99.90;;;;;;8344931;28;21076;-72
2022/08/29 07:38:54;;;;;;;7.67;3.30;;;16.50;99.90;;;;;;8346624;28;20217;-71
2022/08/29 07:42:55;;;;;;;7.50;2.87;;;16.40;99.90;;;;;;8343023;28;20189;-69
2022/08/29 07:46:58;;;;;;;8.10;2.90;;;16.60;99.90;;;;;;8343148;28;20181;-69
2022/08/29 07:50:58;;;;;;;6.50;3.13;;;16.70;99.90;;;;;;8345572;28;20225;-68
2022/08/29 07:54:59;;;;;;;5.40;2.90;;;16.80;1.00;;;;;;8346559;28;20206;-71
2022/08/29 07:59:00;;;;;;;8.70;3.17;;;17.00;1.00;;;;;;8351317;28;20265;-72
2022/08/29 08:03:01;;;;;;;7.17;2.83;;;17.10;99.90;;;;;;8366440;28;20178;-71
2022/08/29 08:07:02;;;;;;;5.73;2.70;;;17.10;99.90;;;;;;8349446;28;20182;-69
2022/08/29 08:11:05;;;;;;;6.90;2.40;;;17.30;99.90;;;;;;8351978;28;20305;-72
2022/08/29 08:15:07;;;;;;;7.17;2.30;;;17.40;99.90;;;;;;8359659;28;20186;-68
2022/08/29 08:19:07;;;;;;;7.33;3.07;;;17.60;99.90;;;;;;8351826;28;20193;-72
2022/08/29 08:23:08;;;;;;;9.43;3.03;;;17.60;21.10;;;;;;8353313;28;20193;-72
2022/08/29 08:27:09;;;;;;;4.80;2.37;;;17.60;88.60;;;;;;8353181;28;20190;-71
2022/08/29 08:31:12;;;;;;;8.17;2.47;;;17.70;52.00;;;;;;8354431;28;20209;-70
2022/08/29 08:35:14;;;;;;;5.33;2.30;;;17.90;1.00;;;;;;8342265;28;20186;-70
2022/08/29 08:39:15;;;;;;;6.83;2.87;;;18.00;1.00;;;;;;8349952;28;20186;-71
2022/08/29 08:43:32;;;;;;;6.07;2.60;;;18.20;1.00;;;;;;8345629;28;20294;-70
2022/08/29 08:47:57;;;;;;;8.10;2.70;;;18.20;1.00;;;;;;8348820;28;20182;-69
2022/08/29 08:52:03;;;;;;;6.50;2.40;;;18.00;1.00;;;;;;8342419;28;20713;-70
2022/08/29 08:56:11;;;;;;;7.17;2.80;;;18.00;1.00;;;;;;8381859;28;20193;-69
2022/08/29 09:00:12;;;;;;;4.80;2.57;;;18.30;3.80;;;;;;8362024;28;20196;-71
2022/08/29 09:04:31;;;;;;;7.77;3.03;;;18.70;1.00;;;;;;8344794;28;20186;-70
2022/08/29 09:09:00;;;;;;;6.50;3.00;;;19.00;1.00;;;;;;8348031;28;20259;-71
2022/08/29 09:13:17;;;;;;;6.17;2.80;;;19.30;1.00;;;;;;8364827;28;20209;-70
2022/08/29 09:17:22;;;;;;;6.57;2.80;;;19.30;99.90;;;;;;8347373;28;20190;-70
2022/08/29 09:21:24;;;;;;;8.70;2.70;;;19.10;99.90;;;;;;8345909;28;20673;-71
2022/08/29 09:25:34;;;;;;;8.93;2.50;;;18.80;99.90;;;;;;8347720;28;20182;-69
2022/08/29 09:29:36;;;;;;;7.07;2.80;;;18.70;1.00;;;;;;8348546;28;20266;-72
2022/08/29 09:33:43;;;;;;;6.57;2.47;;;19.00;99.90;;;;;;8346301;28;20208;-70
2022/08/29 09:37:57;;;;;;;5.50;2.67;;;19.60;99.90;;;;;;8351526;28;20197;-70
2022/08/29 09:42:21;;;;;;;6.40;2.50;;;19.90;99.90;;;;;;8366915;28;20201;-69
2022/08/29 09:46:24;;;;;;;4.67;2.23;;;20.20;99.90;;;;;;8356176;28;20280;-70
2022/08/29 09:50:25;;;;;;;4.77;2.57;;;20.10;99.90;;;;;;8346686;28;20206;-70
2022/08/29 09:54:31;;;;;;;7.50;2.40;;;20.20;99.90;;;;;;8342149;28;20178;-69
2022/08/29 09:58:38;;;;;;;6.97;2.60;;;20.10;99.90;;;;;;8346123;28;20186;-69
2022/08/29 10:02:44;;;;;;;4.47;2.67;;;20.50;99.90;;;;;;8344572;28;20182;-70
2022/08/29 10:06:45;;;;;;;6.10;2.40;;;21.00;99.90;;;;;;8361807;28;20189;-72
2022/08/29 10:10:53;;;;;;;5.77;2.53;;;21.30;95.50;;;;;;8346371;28;20241;-71
2022/08/29 10:15:01;;;;;;;7.37;3.00;;;21.30;98.80;;;;;;8346160;28;20178;-71
2022/08/29 10:19:24;;;;;;;4.60;3.10;;;21.40;96.70;;;;;;8357539;28;20202;-71
2022/08/29 10:23:34;;;;;;;6.40;3.47;;;21.20;99.90;;;;;;8347021;28;20207;-73
2022/08/29 10:27:39;;;;;;;7.57;2.80;;;21.00;99.90;;;;;;8346151;28;20220;-72
2022/08/29 10:32:04;;;;;;;6.00;3.17;;;20.80;86.80;;;;;;8345901;28;20206;-71
2022/08/29 10:36:17;;;;;;;6.43;3.07;;;20.70;96.00;;;;;;8346391;28;20200;-69
2022/08/29 10:40:25;;;;;;;5.50;3.10;;;20.70;78.30;;;;;;8353359;28;20281;-70
2022/08/29 10:44:58;;;;;;;7.33;2.83;;;20.90;85.70;;;;;;8357473;28;20200;-70
2022/08/29 10:49:35;;;;;;;5.37;2.97;;;20.80;68.80;;;;;;8352298;28;20300;-70
2022/08/29 10:53:41;;;;;;;7.90;3.20;;;20.50;52.90;;;;;;8288483;28;20200;-70
2022/08/29 10:58:21;;;;;;;6.27;3.00;;;20.60;79.70;;;;;;8342612;28;20189;-70
2022/08/29 11:02:59;;;;;;;4.87;2.50;;;20.60;92.00;;;;;;8344709;28;20197;-69
2022/08/29 11:07:03;;;;;;;5.63;2.93;;;20.80;84.30;;;;;;8361932;28;20210;-70
2022/08/29 11:11:04;;;;;;;5.60;3.10;;;21.10;91.20;;;;;;8376471;28;20218;-70
2022/08/29 11:15:27;;;;;;;8.43;3.20;;;21.00;61.30;;;;;;8346777;28;20186;-70
2022/08/29 11:19:30;;;;;;;5.83;2.67;;;20.80;70.30;;;;;;8344202;28;20201;-71
2022/08/29 11:23:31;;;;;;;6.73;3.10;;;21.10;75.80;;;;;;8348222;28;20182;-70
2022/08/29 11:28:04;;;;;;;4.30;2.60;;;21.30;42.60;;;;;;8344384;28;20285;-70
2022/08/29 11:32:33;;;;;;;7.17;3.93;;;21.50;1.00;;;;;;8347922;28;20209;-69
2022/08/29 11:37:12;;;;;;;8.93;3.17;;;21.20;1.00;;;;;;8349001;28;20181;-69
2022/08/29 11:41:39;;;;;;;7.07;2.70;;;20.80;16.30;;;;;;8381552;28;20191;-68
2022/08/29 11:45:42;;;;;;;6.63;3.13;;;20.80;33.60;;;;;;8351611;28;20185;-68
2022/08/29 11:49:50;;;;;;;6.07;2.70;;;21.00;70.20;;;;;;8353407;28;20210;-69
2022/08/29 11:54:17;;;;;;;8.10;3.50;;;21.10;23.80;;;;;;8350627;28;20171;-69
2022/08/29 11:58:18;;;;;;;4.73;2.63;;;21.10;58.30;;;;;;8349283;28;20208;-69
2022/08/29 12:02:27;;;;;;;7.73;2.80;;;21.10;38.40;;;;;;8348036;28;20190;-69
2022/08/29 12:06:57;;;;;;;4.70;3.17;;;21.10;47.40;;;;;;8351666;28;20289;-71
2022/08/29 12:10:59;;;;;;;5.93;3.00;;;21.30;73.90;;;;;;8346445;28;20233;-69
2022/08/29 12:15:00;;;;;;;4.57;2.47;;;21.40;29.80;;;;;;8350604;28;20213;-69
2022/08/29 12:19:01;;;;;;;5.63;2.50;;;21.50;35.00;;;;;;8349670;28;20221;-70
2022/08/29 12:23:14;;;;;;;4.60;2.60;;;21.50;1.00;;;;;;8348749;28;20200;-70
2022/08/29 12:27:24;;;;;;;5.93;2.80;;;21.70;15.30;;;;;;8350363;28;20483;-68
2022/08/29 12:32:06;;;;;;;4.60;2.50;;;21.80;1.00;;;;;;8350775;28;20240;-70
2022/08/29 12:36:26;;;;;;;6.40;2.67;;;22.00;1.00;;;;;;8345074;28;20259;-69
2022/08/29 12:40:57;;;;;;;5.67;2.90;;;22.10;4.00;;;;;;8349942;28;20277;-69
2022/08/29 12:45:25;;;;;;;7.53;2.97;;;21.90;1.00;;;;;;8349653;28;20213;-70
2022/08/29 12:49:40;;;;;;;5.77;2.07;;;21.70;1.00;;;;;;8359041;28;20213;-69
2022/08/29 12:53:48;;;;;;;5.03;2.37;;;21.70;1.00;;;;;;8346566;28;20178;-70
2022/08/29 12:57:50;;;;;;;3.90;2.47;;;21.70;1.00;;;;;;8349003;28;20194;-70
2022/08/29 13:01:53;;;;;;;4.77;2.50;;;22.00;1.00;;;;;;8352267;28;20185;-70
2022/08/29 13:06:07;;;;;;;5.77;2.47;;;22.00;1.00;;;;;;8347432;28;20188;-69
2022/08/29 13:10:17;;;;;;;5.10;2.30;;;22.00;1.00;;;;;;8363087;28;20267;-68
2022/08/29 13:14:20;;;;;;;5.03;2.73;;;21.80;1.00;;;;;;8363814;28;20248;-70
2022/08/29 13:18:22;;;;;;;4.13;2.50;;;21.90;12.00;;;;;;8347564;28;20244;-70
2022/08/29 13:22:22;;;;;;;4.07;2.37;;;22.10;5.30;;;;;;8349793;28;20186;-69
2022/08/29 13:26:31;;;;;;;6.40;2.33;;;21.90;1.00;;;;;;8350882;28;20363;-70
2022/08/29 13:30:31;;;;;;;4.53;2.10;;;21.80;1.00;;;;;;8349945;28;20321;-70
2022/08/29 13:34:32;;;;;;;6.17;2.13;;;22.00;30.10;;;;;;8347849;28;20182;-70
2022/08/29 13:38:33;;;;;;;4.97;2.50;;;22.10;1.00;;;;;;8349772;28;20193;-68
2022/08/29 13:42:42;;;;;;;4.40;2.20;;;22.10;4.60;;;;;;8346294;28;20177;-69
2022/08/29 13:46:46;;;;;;;5.53;2.20;;;22.00;1.00;;;;;;8377520;28;20181;-70
2022/08/29 13:50:47;;;;;;;4.90;2.50;;;22.00;1.00;;;;;;8349153;28;20213;-70
2022/08/29 13:54:47;;;;;;;3.63;2.27;;;22.00;1.00;;;;;;8339079;28;20181;-69
2022/08/29 13:58:48;;;;;;;5.83;2.60;;;22.10;5.80;;;;;;8347351;28;20178;-70
2022/08/29 14:02:50;;;;;;;6.73;2.33;;;22.10;1.00;;;;;;8344924;28;20276;-69
2022/08/29 14:06:54;;;;;;;6.67;2.33;;;22.00;1.00;;;;;;8361397;28;20210;-70
2022/08/29 14:10:55;;;;;;;3.00;1.80;;;22.00;1.20;;;;;;8344605;28;20189;-70
2022/08/29 14:14:56;;;;;;;7.10;2.20;;;22.00;1.00;;;;;;8347476;28;20261;-70
2022/08/29 14:18:56;;;;;;;7.47;2.17;;;22.00;1.00;;;;;;8363666;28;20267;-70
2022/08/29 14:23:00;;;;;;;3.13;2.00;;;22.20;2.60;;;;;;8343082;28;20235;-70
2022/08/29 14:27:02;;;;;;;5.97;2.23;;;22.20;1.00;;;;;;8347912;28;20189;-70
2022/08/29 14:31:06;;;;;;;4.87;2.07;;;22.30;3.40;;;;;;8343662;28;20255;-70
2022/08/29 14:35:08;;;;;;;3.73;2.03;;;22.30;1.00;;;;;;8345721;28;20197;-70
2022/08/29 14:39:10;;;;;;;4.40;1.90;;;22.40;4.60;;;;;;8346035;28;20194;-70
2022/08/29 14:43:11;;;;;;;6.00;2.10;;;22.50;1.00;;;;;;8345703;28;20248;-69
2022/08/29 14:47:12;;;;;;;3.37;1.70;;;22.60;24.70;;;;;;8345328;28;20235;-69
2022/08/29 14:51:13;;;;;;;3.77;2.10;;;22.70;1.00;;;;;;8347529;28;20233;-70
2022/08/29 14:55:14;;;;;;;3.87;2.30;;;22.70;12.50;;;;;;8340687;28;20185;-71
2022/08/29 14:59:18;;;;;;;2.93;2.00;;;22.80;1.00;;;;;;8344634;28;20235;-70
2022/08/29 15:03:19;;;;;;;6.40;2.17;;;22.70;1.00;;;;;;8348790;28;20189;-68
2022/08/29 15:07:19;;;;;;;4.10;2.10;;;22.50;1.00;;;;;;8355703;28;20200;-69
2022/08/29 15:11:20;;;;;;;4.53;2.37;;;22.40;1.00;;;;;;8358990;28;20209;-70
2022/08/29 15:15:27;;;;;;;6.00;2.27;;;22.40;1.00;;;;;;8353022;28;20181;-69
2022/08/29 15:19:28;;;;;;;3.47;2.00;;;22.30;15.80;;;;;;8351747;28;20193;-70
2022/08/29 15:23:30;;;;;;;3.90;1.73;;;22.00;3.20;;;;;;8351959;28;20394;-69
2022/08/29 15:27:31;;;;;;;4.73;2.27;;;21.90;37.40;;;;;;8351695;28;20173;-70
2022/08/29 15:31:32;;;;;;;4.47;1.93;;;21.80;93.90;;;;;;8356594;28;20212;-70
2022/08/29 15:35:33;;;;;;;3.93;2.20;;;21.70;63.40;;;;;;8349414;28;20178;-70
2022/08/29 15:39:34;;;;;;;8.57;2.33;;;21.80;69.10;;;;;;8355015;28;20198;-70
2022/08/29 15:43:35;;;;;;;4.27;2.00;;;21.70;81.50;;;;;;8352418;28;20194;-70
2022/08/29 15:47:37;;;;;;;4.13;2.23;;;21.80;34.60;;;;;;8351202;28;20697;-70
2022/08/29 15:51:38;;;;;;;3.77;1.77;;;21.70;73.90;;;;;;8350118;28;20213;-69
2022/08/29 15:55:39;;;;;;;4.13;2.00;;;21.80;91.30;;;;;;8350280;28;20237;-69
2022/08/29 15:59:40;;;;;;;5.63;2.77;;;21.70;69.70;;;;;;8351933;28;20185;-70
2022/08/29 16:03:43;;;;;;;5.63;2.43;;;21.60;99.90;;;;;;8347850;28;20189;-69
2022/08/29 16:07:44;;;;;;;7.27;2.20;;;21.60;99.90;;;;;;8352535;28;20282;-69
2022/08/29 16:11:47;;;;;;;5.93;2.20;;;21.70;99.90;;;;;;8347325;28;20228;-69
2022/08/29 16:15:48;;;;;;;4.13;2.00;;;21.60;99.90;;;;;;8350877;28;20339;-69
2022/08/29 16:19:49;;;;;;;4.63;2.43;;;21.40;99.90;;;;;;8351209;28;20201;-69
2022/08/29 16:23:51;;;;;;;4.60;2.23;;;21.30;99.90;;;;;;8349399;28;20272;-69
2022/08/29 16:27:52;;;;;;;6.83;3.00;;;21.20;99.90;;;;;;8352054;28;20193;-69
2022/08/29 16:31:59;;;;;;;6.33;2.30;;;21.20;99.90;;;;;;8346140;28;20322;-69
2022/08/29 16:36:00;;;;;;;5.33;2.53;;;21.20;99.90;;;;;;8343609;28;20216;-69
2022/08/29 16:40:03;;;;;;;5.10;2.40;;;21.10;99.90;;;;;;8348791;28;20237;-68
2022/08/29 16:44:04;;;;;;;4.63;2.10;;;21.00;99.90;;;;;;8346856;28;20182;-69
2022/08/29 16:48:05;;;;;;;4.40;2.73;;;21.00;99.90;;;;;;8347763;28;20189;-69
2022/08/29 16:52:06;;;;;;;8.00;2.47;;;20.90;99.90;;;;;;8365206;28;20208;-69
2022/08/29 16:56:10;;;;;;;10.30;3.10;;;20.90;99.90;;;;;;8350386;28;20232;-69
2022/08/29 17:00:12;;;;;;;3.97;2.20;;;20.80;99.90;;;;;;8346526;28;20272;-70
2022/08/29 17:04:17;;;;;;;6.70;2.80;;;20.70;99.90;;;;;;8348647;28;20259;-70
2022/08/29 17:20:21;;;;;;;3.57;2.80;;;20.10;99.90;;;;;;8348680;28;20206;-70
2022/08/29 17:24:22;;;;;;;5.60;3.10;;;19.90;1.00;;;;;;8346676;28;20205;-69
2022/08/29 17:28:23;;;;;;;4.87;3.10;;;19.70;1.00;;;;;;8345097;28;20259;-69
2022/08/29 17:32:24;;;;;;;5.50;2.93;;;19.50;1.00;;;;;;8348637;28;20182;-70
2022/08/29 17:36:25;;;;;;;5.63;3.20;;;19.40;1.00;;;;;;8352744;28;20446;-69
2022/08/29 17:40:26;;;;;;;3.87;3.07;;;19.20;1.00;;;;;;8345166;28;20190;-69
2022/08/29 17:44:27;;;;;;;6.47;3.77;;;19.00;59.10;;;;;;8348119;28;20544;-69
2022/08/29 17:48:28;;;;;;;8.47;4.17;;;18.80;99.90;;;;;;8345012;28;20205;-69
2022/08/29 17:52:30;;;;;;;4.67;3.53;;;18.60;99.90;;;;;;8343798;28;20182;-68
2022/08/29 17:56:47;;;;;;;3.17;2.70;;;18.40;99.90;;;;;;8347460;28;20277;-69
2022/08/29 18:00:49;;;;;;;4.00;2.90;;;18.20;99.90;;;;;;8345683;28;20237;-72
2022/08/29 18:04:50;;;;;;;4.40;3.87;;;17.90;1.00;;;;;;8345809;28;20200;-69
2022/08/29 18:08:51;;;;;;;4.80;3.47;;;17.80;34.80;;;;;;8349179;28;20254;-69
2022/08/29 18:12:52;;;;;;;6.93;3.77;;;17.60;99.90;;;;;;8344194;28;20202;-69
2022/08/29 18:16:53;;;;;;;5.20;3.43;;;17.40;99.90;;;;;;8354095;28;20262;-69
2022/08/29 18:20:54;;;;;;;3.43;3.10;;;17.20;1.00;;;;;;8363637;28;20284;-69
2022/08/29 18:24:56;;;;;;;3.83;3.10;;;17.10;99.90;;;;;;8347712;28;20196;-69
2022/08/29 18:28:58;;;;;;;4.17;2.77;;;16.80;61.90;;;;;;8353107;28;20205;-68
2022/08/29 18:32:59;;;;;;;3.93;3.20;;;16.60;1.00;;;;;;8343343;28;20488;-69
2022/08/29 18:36:59;;;;;;;5.40;3.60;;;16.40;99.90;;;;;;8347161;28;20208;-69
2022/08/29 18:41:01;;;;;;;3.57;2.83;;;16.20;1.00;;;;;;8343782;28;20186;-69
2022/08/29 18:45:04;;;;;;;3.17;2.87;;;16.00;99.90;;;;;;8342587;28;20255;-68
2022/08/29 18:49:04;;;;;;;4.73;3.57;;;15.90;1.00;;;;;;8343564;28;20202;-69
2022/08/29 18:53:07;;;;;;;3.87;3.40;;;15.80;99.90;;;;;;8342130;28;20243;-68
2022/08/29 18:57:09;;;;;;;5.43;3.50;;;15.70;1.00;;;;;;8348735;28;20204;-68
2022/08/29 19:01:17;;;;;;;4.03;3.63;;;15.60;99.90;;;;;;8344839;28;20190;-69
2022/08/29 19:05:20;;;;;;;3.70;3.30;;;15.50;1.00;;;;;;8344912;28;20239;-68
2022/08/29 19:09:21;;;;;;;4.00;3.47;;;15.40;90.60;;;;;;8344908;28;20209;-68
2022/08/29 19:13:22;;;;;;;4.53;3.70;;;15.30;99.90;;;;;;8344249;28;20220;-70
2022/08/29 19:17:23;;;;;;;4.90;3.80;;;15.20;99.90;;;;;;8345768;28;20220;-69
2022/08/29 19:21:24;;;;;;;5.77;4.10;;;15.10;99.90;;;;;;8343059;28;20195;-69
2022/08/29 19:25:25;;;;;;;4.50;4.00;;;15.00;99.90;;;;;;8347648;28;20209;-69
2022/08/29 19:29:26;;;;;;;5.07;3.80;;;14.90;99.90;;;;;;8344186;28;20204;-68
2022/08/29 19:33:27;;;;;;;4.07;3.67;;;14.80;99.90;;;;;;8342754;28;20201;-68
2022/08/29 19:37:28;;;;;;;4.97;3.97;;;14.70;99.90;;;;;;8347225;28;20603;-68
2022/08/29 19:41:29;;;;;;;4.80;4.30;;;14.70;99.90;;;;;;8345506;28;20181;-68
2022/08/29 19:45:30;;;;;;;5.20;4.70;;;14.60;1.00;;;;;;8375251;28;20185;-68
2022/08/29 19:49:31;;;;;;;4.40;3.93;;;14.60;1.00;;;;;;8341614;28;20513;-68
2022/08/29 19:53:32;;;;;;;4.80;4.37;;;14.50;1.00;;;;;;8350489;28;20185;-70
2022/08/29 19:57:33;;;;;;;5.67;4.47;;;14.40;68.50;;;;;;8350457;28;20186;-67
2022/08/29 20:01:34;;;;;;;8.17;4.50;;;14.30;99.90;;;;;;8351020;28;20186;-66
2022/08/29 20:05:35;;;;;;;4.57;4.17;;;14.20;1.00;;;;;;8344194;28;20259;-68
2022/08/29 20:09:36;;;;;;;5.10;4.60;;;14.10;1.00;;;;;;8351123;28;20224;-67
2022/08/29 20:13:38;;;;;;;5.70;4.83;;;14.10;99.90;;;;;;8350599;28;20233;-67
2022/08/29 20:17:41;;;;;;;5.07;4.57;;;14.00;99.90;;;;;;8351435;28;20407;-67
2022/08/29 20:21:43;;;;;;;4.87;4.33;;;13.90;99.90;;;;;;8351277;28;20188;-68
2022/08/29 20:25:44;;;;;;;4.90;4.43;;;13.80;99.90;;;;;;8340073;28;20243;-68
2022/08/29 20:29:45;;;;;;;4.90;4.40;;;13.70;99.90;;;;;;8351397;28;20209;-69
2022/08/29 20:33:47;;;;;;;5.00;4.47;;;13.70;99.90;;;;;;8349960;28;20304;-68
2022/08/29 20:37:48;;;;;;;4.97;4.47;;;13.60;99.90;;;;;;8350147;28;20177;-68
2022/08/29 20:41:54;;;;;;;5.10;4.60;;;13.50;99.90;;;;;;8348988;28;20260;-68
2022/08/29 20:45:55;;;;;;;5.53;5.00;;;13.50;99.90;;;;;;8349344;28;20277;-68
2022/08/29 20:49:56;;;;;;;5.37;4.87;;;13.50;99.90;;;;;;8377384;28;20271;-68
2022/08/29 20:53:57;;;;;;;5.70;5.10;;;13.40;99.90;;;;;;8348734;28;20178;-68
2022/08/29 20:57:58;;;;;;;5.20;4.70;;;13.30;99.90;;;;;;8349208;28;20178;-68
2022/08/29 21:02:00;;;;;;;5.70;5.20;;;13.30;99.90;;;;;;8346860;28;20261;-68
2022/08/29 21:06:02;;;;;;;6.57;5.57;;;13.30;99.90;;;;;;8347767;28;20194;-71
2022/08/29 21:10:03;;;;;;;5.70;5.10;;;13.30;99.90;;;;;;8348367;28;20869;-68
2022/08/29 21:14:04;;;;;;;5.10;4.50;;;13.20;99.90;;;;;;8347413;28;20201;-68
2022/08/29 21:18:07;;;;;;;6.13;5.53;;;13.20;99.90;;;;;;8350077;28;20194;-69
2022/08/29 21:22:12;;;;;;;5.80;5.23;;;13.20;99.90;;;;;;8346299;28;20185;-68
2022/08/29 21:26:14;;;;;;;5.27;4.77;;;13.10;99.90;;;;;;8346802;28;20247;-67
2022/08/29 21:30:14;;;;;;;6.00;5.07;;;13.10;99.90;;;;;;8344794;28;20217;-68